createdAt,value
2022-12-31T00:01:51.316Z,8.50
2022-12-31T00:04:18.341Z,8.52
2022-12-31T00:06:46.052Z,8.53
2022-12-31T00:09:12.867Z,8.55
2022-12-31T00:11:40.252Z,8.56
2022-12-31T00:14:07.331Z,8.55
2022-12-31T00:16:37.549Z,8.50
2022-12-31T00:19:06.097Z,8.49
2022-12-31T00:21:34.187Z,8.53
2022-12-31T00:24:02.448Z,8.57
2022-12-31T00:26:31.777Z,8.60
2022-12-31T00:29:00.453Z,8.63
2022-12-31T00:31:30.441Z,8.61
2022-12-31T00:33:57.900Z,8.51
2022-12-31T00:36:26.024Z,8.48
2022-12-31T00:38:54.434Z,8.47
2022-12-31T00:41:22.685Z,8.47
2022-12-31T00:43:49.687Z,8.43
2022-12-31T00:46:16.767Z,8.41
2022-12-31T00:48:44.090Z,8.40
2022-12-31T00:51:13.287Z,8.37
2022-12-31T00:53:39.997Z,8.30
2022-12-31T00:56:12.423Z,8.27
2022-12-31T00:58:39.558Z,8.28
2022-12-31T01:01:16.569Z,8.31
2022-12-31T01:03:43.847Z,8.29
2022-12-31T01:06:11.387Z,8.26
2022-12-31T01:08:38.141Z,8.17
2022-12-31T01:11:22.794Z,8.09
2022-12-31T01:13:52.024Z,8.05
2022-12-31T01:16:22.142Z,8.02
2022-12-31T01:18:49.269Z,7.99
2022-12-31T01:21:16.893Z,7.95
2022-12-31T01:23:43.888Z,7.93
2022-12-31T01:26:12.770Z,7.90
2022-12-31T01:28:39.603Z,7.84
2022-12-31T01:31:12.811Z,7.80
2022-12-31T01:33:40.045Z,7.70
2022-12-31T01:36:25.557Z,7.57
2022-12-31T01:38:54.245Z,7.52
2022-12-31T01:41:24.113Z,7.53
2022-12-31T01:43:57.280Z,7.50
2022-12-31T01:46:23.963Z,7.41
2022-12-31T01:48:55.252Z,7.36
2022-12-31T01:51:23.054Z,7.35
2022-12-31T01:53:50.627Z,7.29
2022-12-31T01:56:20.106Z,7.23
2022-12-31T01:58:51.518Z,7.21
2022-12-31T02:01:27.847Z,7.21
2022-12-31T02:03:56.607Z,7.27
2022-12-31T02:06:33.687Z,7.35
2022-12-31T02:09:00.970Z,7.36
2022-12-31T02:11:36.589Z,7.39
2022-12-31T02:14:09.856Z,7.38
2022-12-31T02:16:52.412Z,7.35
2022-12-31T02:19:43.978Z,7.31
2022-12-31T02:22:35.099Z,7.27
2022-12-31T02:25:10.754Z,7.25
2022-12-31T02:28:08.022Z,7.25
2022-12-31T02:30:36.385Z,7.27
2022-12-31T02:33:06.012Z,7.30
2022-12-31T02:35:47.018Z,7.30
2022-12-31T02:38:24.984Z,7.32
2022-12-31T02:40:54.025Z,7.38
2022-12-31T02:43:20.750Z,7.45
2022-12-31T02:46:30.920Z,7.53
2022-12-31T02:49:04.165Z,7.65
2022-12-31T02:51:48.525Z,7.72
2022-12-31T02:54:38.095Z,7.78
2022-12-31T02:57:21.597Z,7.83
2022-12-31T03:00:28.033Z,7.90
2022-12-31T03:02:55.935Z,7.97
2022-12-31T03:05:26.912Z,8.02
2022-12-31T03:07:54.273Z,8.04
2022-12-31T03:10:21.537Z,8.02
2022-12-31T03:12:49.348Z,8.02
2022-12-31T03:15:31.408Z,8.07
2022-12-31T03:18:01.050Z,8.14
2022-12-31T03:20:51.477Z,8.18
2022-12-31T03:23:25.413Z,8.23
2022-12-31T03:25:53.479Z,8.25
2022-12-31T03:28:23.794Z,8.25
2022-12-31T03:30:55.430Z,8.25
2022-12-31T03:33:23.215Z,8.28
2022-12-31T03:35:50.402Z,8.31
2022-12-31T03:38:18.671Z,8.32
2022-12-31T03:40:51.663Z,8.30
2022-12-31T03:43:19.682Z,8.31
2022-12-31T03:45:54.269Z,8.36
2022-12-31T03:48:23.355Z,8.42
2022-12-31T03:50:51.028Z,8.45
2022-12-31T03:53:18.291Z,8.47
2022-12-31T03:55:45.008Z,8.45
2022-12-31T03:58:11.717Z,8.42
2022-12-31T04:00:38.543Z,8.39
2022-12-31T04:03:06.307Z,8.39
2022-12-31T04:05:33.827Z,8.42
2022-12-31T04:08:00.566Z,8.45
2022-12-31T04:10:27.395Z,8.44
2022-12-31T04:12:54.205Z,8.43
2022-12-31T04:15:21.396Z,8.42
2022-12-31T04:17:48.498Z,8.44
2022-12-31T04:20:16.482Z,8.47
2022-12-31T04:22:44.123Z,8.48
2022-12-31T04:25:11.742Z,8.49
2022-12-31T04:27:40.850Z,8.51
2022-12-31T04:30:09.874Z,8.53
2022-12-31T04:32:36.655Z,8.53
2022-12-31T04:35:03.907Z,8.55
2022-12-31T04:37:30.668Z,8.57
2022-12-31T04:40:02.002Z,8.60
2022-12-31T04:42:32.443Z,8.62
2022-12-31T04:44:59.160Z,8.63
2022-12-31T04:47:25.848Z,8.62
2022-12-31T04:49:52.542Z,8.62
2022-12-31T04:52:19.274Z,8.59
2022-12-31T04:54:45.985Z,8.55
2022-12-31T04:57:12.784Z,8.52
2022-12-31T04:59:39.743Z,8.51
2022-12-31T05:02:06.620Z,8.48
2022-12-31T05:04:33.608Z,8.42
2022-12-31T05:07:00.323Z,8.41
2022-12-31T05:09:28.493Z,8.41
2022-12-31T05:11:55.318Z,8.34
2022-12-31T05:14:22.364Z,8.32
2022-12-31T05:16:49.225Z,8.35
2022-12-31T05:19:16.425Z,8.36
2022-12-31T05:21:43.340Z,8.34
2022-12-31T05:24:10.117Z,8.32
2022-12-31T05:26:36.838Z,8.32
2022-12-31T05:29:03.547Z,8.31
2022-12-31T05:31:30.273Z,8.32
2022-12-31T05:33:57.210Z,8.36
2022-12-31T05:36:23.964Z,8.40
2022-12-31T05:38:50.654Z,8.41
2022-12-31T05:41:17.467Z,8.37
2022-12-31T05:43:44.184Z,8.36
2022-12-31T05:46:10.941Z,8.37
2022-12-31T05:48:37.686Z,8.41
2022-12-31T05:51:04.584Z,8.45
2022-12-31T05:53:31.301Z,8.48
2022-12-31T05:55:57.995Z,8.48
2022-12-31T05:58:25.777Z,8.47
2022-12-31T06:00:52.786Z,8.47
2022-12-31T06:03:19.607Z,8.40
2022-12-31T06:05:46.378Z,8.38
2022-12-31T06:08:13.152Z,8.36
2022-12-31T06:10:40.716Z,8.33
2022-12-31T06:13:08.093Z,8.34
2022-12-31T06:15:39.847Z,8.37
2022-12-31T06:18:06.910Z,8.40
2022-12-31T06:20:36.425Z,8.39
2022-12-31T06:23:03.545Z,8.41
2022-12-31T06:25:30.290Z,8.45
2022-12-31T06:27:56.956Z,8.46
2022-12-31T06:30:23.677Z,8.43
2022-12-31T06:32:50.371Z,8.39
2022-12-31T06:35:18.153Z,8.34
2022-12-31T06:37:44.926Z,8.33
2022-12-31T06:40:12.110Z,8.37
2022-12-31T06:42:38.835Z,8.39
2022-12-31T06:45:06.594Z,8.43
2022-12-31T06:47:33.313Z,8.46
2022-12-31T06:50:00.062Z,8.45
2022-12-31T06:52:26.820Z,8.45
2022-12-31T06:54:53.897Z,8.46
2022-12-31T06:57:20.902Z,8.46
2022-12-31T06:59:48.016Z,8.47
2022-12-31T07:02:36.766Z,8.47
2022-12-31T07:05:21.561Z,8.45
2022-12-31T07:07:51.130Z,8.39
2022-12-31T07:11:07.689Z,8.37
2022-12-31T07:13:52.657Z,8.35
2022-12-31T07:16:47.339Z,8.37
2022-12-31T07:19:25.196Z,8.42
2022-12-31T07:21:55.544Z,8.45
2022-12-31T07:24:22.642Z,8.47
2022-12-31T07:27:01.605Z,8.48
2022-12-31T07:29:30.960Z,8.50
2022-12-31T07:32:19.502Z,8.55
2022-12-31T07:34:56.050Z,8.55
2022-12-31T07:37:29.651Z,8.55
2022-12-31T07:39:58.997Z,8.58
2022-12-31T07:43:05.133Z,8.63
2022-12-31T07:45:59.156Z,8.64
2022-12-31T07:48:28.132Z,8.67
2022-12-31T07:50:57.060Z,8.72
2022-12-31T07:53:25.277Z,8.79
2022-12-31T07:55:58.576Z,8.84
2022-12-31T07:58:40.847Z,8.89
2022-12-31T08:01:28.328Z,8.88
2022-12-31T08:04:17.454Z,8.86
2022-12-31T08:06:59.429Z,8.87
2022-12-31T08:09:33.705Z,8.92
2022-12-31T08:12:02.161Z,8.93
2022-12-31T08:14:29.935Z,8.94
2022-12-31T08:16:57.469Z,8.98
2022-12-31T08:19:24.959Z,8.99
2022-12-31T08:22:16.778Z,8.97
2022-12-31T08:25:04.618Z,8.99
2022-12-31T08:27:42.102Z,9.06
2022-12-31T08:30:21.363Z,9.12
2022-12-31T08:33:06.774Z,9.15
2022-12-31T08:35:36.303Z,9.17
2022-12-31T08:38:09.174Z,9.18
2022-12-31T08:41:13.901Z,9.18
2022-12-31T08:43:49.662Z,9.20
2022-12-31T08:46:34.593Z,9.24
2022-12-31T08:49:01.527Z,9.23
2022-12-31T08:51:28.522Z,9.21
2022-12-31T08:53:55.690Z,9.18
2022-12-31T08:56:29.038Z,9.15
2022-12-31T08:59:37.365Z,9.16
2022-12-31T09:02:10.241Z,9.20
2022-12-31T09:04:58.392Z,9.23
2022-12-31T09:07:37.480Z,9.28
2022-12-31T09:10:21.594Z,9.31
2022-12-31T09:13:06.431Z,9.37
2022-12-31T09:15:36.464Z,9.40
2022-12-31T09:18:03.595Z,9.40
2022-12-31T09:20:42.851Z,9.41
2022-12-31T09:23:11.648Z,9.40
2022-12-31T09:25:59.890Z,9.38
2022-12-31T09:28:26.668Z,9.38
2022-12-31T09:31:32.574Z,9.39
2022-12-31T09:34:34.562Z,9.41
2022-12-31T09:37:13.769Z,9.46
2022-12-31T09:39:43.678Z,9.48
2022-12-31T09:42:28.420Z,9.48
2022-12-31T09:45:13.628Z,9.48
2022-12-31T09:47:46.399Z,9.48
2022-12-31T09:50:19.531Z,9.50
2022-12-31T09:53:04.616Z,9.52
2022-12-31T09:55:45.597Z,9.56
2022-12-31T09:58:42.793Z,9.58
2022-12-31T10:01:36.249Z,9.64
2022-12-31T10:04:32.913Z,9.69
2022-12-31T10:07:43.142Z,9.73
2022-12-31T10:10:22.659Z,9.73
2022-12-31T10:13:28.642Z,9.75
2022-12-31T10:16:21.013Z,9.78
2022-12-31T10:19:12.498Z,9.81
2022-12-31T10:22:14.336Z,9.83
2022-12-31T10:25:18.948Z,9.83
2022-12-31T10:28:24.009Z,9.84
2022-12-31T10:31:15.733Z,9.88
2022-12-31T10:33:53.016Z,9.88
2022-12-31T10:36:31.838Z,9.89
2022-12-31T10:39:24.020Z,9.91
2022-12-31T10:42:06.663Z,9.95
2022-12-31T10:45:05.447Z,9.97
2022-12-31T10:47:47.474Z,10.01
2022-12-31T10:50:21.865Z,10.04
2022-12-31T10:53:09.852Z,10.08
2022-12-31T10:56:16.733Z,10.11
2022-12-31T10:59:21.343Z,10.14
2022-12-31T11:02:09.971Z,10.18
2022-12-31T11:04:58.933Z,10.23
2022-12-31T11:07:58.889Z,10.24
2022-12-31T11:10:40.733Z,10.27
2022-12-31T11:13:35.439Z,10.31
2022-12-31T11:16:30.248Z,10.37
2022-12-31T11:19:22.739Z,10.45
2022-12-31T11:22:04.490Z,10.53
2022-12-31T11:24:42.367Z,10.58
2022-12-31T11:27:37.036Z,10.59
2022-12-31T11:30:22.419Z,10.57
2022-12-31T11:33:07.354Z,10.56
2022-12-31T11:36:05.257Z,10.58
2022-12-31T11:38:44.756Z,10.60
2022-12-31T11:41:13.956Z,10.63
2022-12-31T11:44:02.003Z,10.67
2022-12-31T11:46:34.693Z,10.70
2022-12-31T11:49:22.941Z,10.70
2022-12-31T11:52:24.067Z,10.72
2022-12-31T11:55:23.488Z,10.76
2022-12-31T11:57:52.372Z,10.83
2022-12-31T12:00:20.896Z,10.88
2022-12-31T12:02:54.015Z,10.91
2022-12-31T12:05:23.796Z,10.93
2022-12-31T12:07:52.378Z,10.94
2022-12-31T12:10:23.221Z,10.94
2022-12-31T12:12:51.394Z,10.94
2022-12-31T12:15:23.072Z,10.95
2022-12-31T12:17:54.110Z,11.00
2022-12-31T12:20:40.969Z,11.05
2022-12-31T12:23:21.556Z,11.10
2022-12-31T12:25:48.222Z,11.15
2022-12-31T12:28:25.086Z,11.16
2022-12-31T12:30:58.935Z,11.14
2022-12-31T12:33:27.379Z,11.14
2022-12-31T12:35:54.088Z,11.19
2022-12-31T12:38:23.188Z,11.21
2022-12-31T12:41:02.519Z,11.23
2022-12-31T12:43:37.643Z,11.28
2022-12-31T12:46:18.588Z,11.33
2022-12-31T12:48:49.481Z,11.36
2022-12-31T12:51:31.614Z,11.35
2022-12-31T12:54:33.544Z,11.35
2022-12-31T12:57:06.163Z,11.36
2022-12-31T12:59:38.759Z,11.34
2022-12-31T13:02:50.371Z,11.33
2022-12-31T13:05:57.079Z,11.29
2022-12-31T13:08:52.250Z,11.27
2022-12-31T13:11:28.385Z,11.27
2022-12-31T13:14:34.369Z,11.25
2022-12-31T13:17:29.315Z,11.24
2022-12-31T13:20:10.897Z,11.22
2022-12-31T13:23:11.498Z,11.20
2022-12-31T13:26:17.328Z,11.17
2022-12-31T13:28:47.329Z,11.16
2022-12-31T13:31:27.821Z,11.15
2022-12-31T13:34:32.011Z,11.16
2022-12-31T13:37:05.664Z,11.20
2022-12-31T13:39:38.867Z,11.21
2022-12-31T13:42:30.342Z,11.21
2022-12-31T13:45:04.255Z,11.22
2022-12-31T13:47:40.853Z,11.24
2022-12-31T13:50:31.509Z,11.26
2022-12-31T13:52:58.162Z,11.26
2022-12-31T13:55:40.423Z,11.28
2022-12-31T13:58:36.630Z,11.28
2022-12-31T14:01:20.051Z,11.26
2022-12-31T14:04:08.350Z,11.25
2022-12-31T14:06:51.859Z,11.22
2022-12-31T14:09:31.547Z,11.20
2022-12-31T14:11:58.258Z,11.18
2022-12-31T14:14:37.153Z,11.18
2022-12-31T14:17:19.900Z,11.17
2022-12-31T14:20:26.364Z,11.14
2022-12-31T14:23:27.553Z,11.13
2022-12-31T14:26:02.225Z,11.11
2022-12-31T14:28:36.923Z,11.09
2022-12-31T14:31:23.061Z,11.11
2022-12-31T14:33:59.349Z,11.12
2022-12-31T14:36:30.641Z,11.10
2022-12-31T14:39:20.039Z,11.08
2022-12-31T14:42:03.532Z,11.05
2022-12-31T14:45:06.801Z,11.02
2022-12-31T14:47:53.428Z,11.01
2022-12-31T14:50:31.451Z,11.02
2022-12-31T14:53:04.130Z,11.05
2022-12-31T14:55:36.546Z,11.06
2022-12-31T14:58:29.293Z,11.04
2022-12-31T15:01:00.939Z,11.01
2022-12-31T15:03:30.624Z,10.97
2022-12-31T15:06:23.394Z,10.95
2022-12-31T15:09:08.211Z,10.96
2022-12-31T15:11:41.473Z,10.95
2022-12-31T15:14:37.460Z,10.92
2022-12-31T15:17:22.949Z,10.91
2022-12-31T15:20:20.670Z,10.94
2022-12-31T15:22:49.928Z,10.97
2022-12-31T15:25:41.270Z,10.96
2022-12-31T15:28:29.533Z,10.94
2022-12-31T15:31:20.046Z,10.90
2022-12-31T15:33:59.718Z,10.83
2022-12-31T15:36:33.087Z,10.80
2022-12-31T15:39:07.789Z,10.79
2022-12-31T15:41:46.162Z,10.79
2022-12-31T15:44:45.164Z,10.80
2022-12-31T15:47:21.070Z,10.83
2022-12-31T15:49:48.424Z,10.84
2022-12-31T15:52:22.408Z,10.82
2022-12-31T15:54:56.414Z,10.78
2022-12-31T15:57:40.739Z,10.77
2022-12-31T16:00:17.157Z,10.75
2022-12-31T16:02:45.446Z,10.69
2022-12-31T16:05:41.602Z,10.64
2022-12-31T16:08:19.550Z,10.63
2022-12-31T16:10:46.809Z,10.63
2022-12-31T16:13:22.867Z,10.63
2022-12-31T16:16:00.457Z,10.65
2022-12-31T16:18:39.987Z,10.69
2022-12-31T16:21:28.385Z,10.72
2022-12-31T16:24:04.206Z,10.75
2022-12-31T16:26:52.536Z,10.75
2022-12-31T16:29:22.245Z,10.74
2022-12-31T16:31:51.175Z,10.74
2022-12-31T16:34:23.429Z,10.72
2022-12-31T16:37:02.591Z,10.65
2022-12-31T16:39:37.069Z,10.60
2022-12-31T16:42:18.659Z,10.57
2022-12-31T16:44:46.920Z,10.56
2022-12-31T16:47:19.470Z,10.58
2022-12-31T16:49:50.812Z,10.62
2022-12-31T16:52:32.418Z,10.64
2022-12-31T16:54:59.467Z,10.64
2022-12-31T16:57:30.307Z,10.63
2022-12-31T17:00:04.262Z,10.62
2022-12-31T17:02:35.512Z,10.61
2022-12-31T17:05:02.657Z,10.61
2022-12-31T17:07:32.237Z,10.60
2022-12-31T17:10:08.026Z,10.53
2022-12-31T17:13:17.025Z,10.48
2022-12-31T17:15:41.746Z,10.42
2022-12-31T17:18:17.943Z,10.40
2022-12-31T17:20:44.908Z,10.42
2022-12-31T17:23:22.842Z,10.45
2022-12-31T17:25:49.620Z,10.48
2022-12-31T17:28:24.928Z,10.49
2022-12-31T17:30:52.436Z,10.45
2022-12-31T17:33:21.872Z,10.36
2022-12-31T17:35:55.141Z,10.33
2022-12-31T17:38:21.823Z,10.37
2022-12-31T17:41:06.785Z,10.39
2022-12-31T17:43:36.500Z,10.38
2022-12-31T17:46:11.023Z,10.35
2022-12-31T17:48:38.094Z,10.33
2022-12-31T17:51:05.077Z,10.32
2022-12-31T17:53:31.831Z,10.30
2022-12-31T17:56:02.890Z,10.27
2022-12-31T17:58:33.570Z,10.23
2022-12-31T18:01:02.106Z,10.18
2022-12-31T18:03:29.057Z,10.16
2022-12-31T18:05:55.915Z,10.14
2022-12-31T18:08:22.679Z,10.12
2022-12-31T18:10:51.277Z,10.13
2022-12-31T18:13:21.054Z,10.18
2022-12-31T18:15:47.791Z,10.23
2022-12-31T18:18:24.334Z,10.28
2022-12-31T18:20:58.969Z,10.31
2022-12-31T18:23:29.204Z,10.33
2022-12-31T18:25:56.018Z,10.34
2022-12-31T18:28:23.284Z,10.37
2022-12-31T18:30:50.236Z,10.42
2022-12-31T18:33:22.315Z,10.43
2022-12-31T18:36:09.875Z,10.40
2022-12-31T18:38:37.301Z,10.32
2022-12-31T18:41:04.503Z,10.29
2022-12-31T18:43:31.389Z,10.28
2022-12-31T18:45:58.530Z,10.26
2022-12-31T18:48:25.335Z,10.25
2022-12-31T18:50:52.176Z,10.28
2022-12-31T18:53:22.322Z,10.31
2022-12-31T18:55:54.913Z,10.34
2022-12-31T18:58:22.040Z,10.36
2022-12-31T19:00:50.689Z,10.37
2022-12-31T19:03:21.157Z,10.40
2022-12-31T19:05:50.756Z,10.38
2022-12-31T19:08:18.990Z,10.35
2022-12-31T19:10:46.698Z,10.35
2022-12-31T19:13:14.884Z,10.36
2022-12-31T19:15:50.655Z,10.38
2022-12-31T19:18:17.984Z,10.37
2022-12-31T19:20:45.282Z,10.37
2022-12-31T19:23:20.618Z,10.33
2022-12-31T19:25:48.915Z,10.26
2022-12-31T19:28:22.015Z,10.22
2022-12-31T19:30:48.736Z,10.17
2022-12-31T19:33:16.484Z,10.15
2022-12-31T19:35:44.119Z,10.13
2022-12-31T19:38:22.858Z,10.11
2022-12-31T19:40:50.852Z,10.11
2022-12-31T19:43:20.511Z,10.11
2022-12-31T19:45:47.783Z,10.12
2022-12-31T19:48:17.514Z,10.10
2022-12-31T19:50:50.188Z,10.12
2022-12-31T19:53:22.355Z,10.15
2022-12-31T19:55:50.169Z,10.19
2022-12-31T19:58:19.938Z,10.23
2022-12-31T20:00:55.595Z,10.27
2022-12-31T20:03:24.586Z,10.28
2022-12-31T20:05:51.344Z,10.27
2022-12-31T20:08:20.381Z,10.30
2022-12-31T20:10:47.179Z,10.31
2022-12-31T20:13:13.869Z,10.26
2022-12-31T20:15:47.635Z,10.23
2022-12-31T20:18:14.400Z,10.17
2022-12-31T20:20:49.250Z,10.13
2022-12-31T20:23:20.367Z,10.13
2022-12-31T20:25:59.758Z,10.16
2022-12-31T20:28:26.857Z,10.15
2022-12-31T20:30:53.943Z,10.16
2022-12-31T20:33:20.805Z,10.19
2022-12-31T20:35:47.530Z,10.21
2022-12-31T20:38:14.360Z,10.22
2022-12-31T20:40:46.436Z,10.24
2022-12-31T20:43:13.760Z,10.24
2022-12-31T20:45:41.573Z,10.23
2022-12-31T20:48:08.443Z,10.22
2022-12-31T20:50:35.389Z,10.22
2022-12-31T20:53:02.444Z,10.23
2022-12-31T20:55:30.799Z,10.20
2022-12-31T20:57:57.705Z,10.20
2022-12-31T21:00:24.575Z,10.25
2022-12-31T21:02:58.981Z,10.29
2022-12-31T21:05:31.072Z,10.32
2022-12-31T21:07:58.317Z,10.34
2022-12-31T21:10:25.188Z,10.36
2022-12-31T21:12:54.475Z,10.39
2022-12-31T21:15:21.772Z,10.39
2022-12-31T21:17:48.594Z,10.42
2022-12-31T21:20:15.357Z,10.45
2022-12-31T21:22:42.066Z,10.47
2022-12-31T21:25:10.565Z,10.49
2022-12-31T21:27:37.319Z,10.49
2022-12-31T21:30:21.010Z,10.50
2022-12-31T21:32:48.569Z,10.50
2022-12-31T21:35:42.357Z,10.51
2022-12-31T21:38:03.749Z,10.52
2022-12-31T21:40:31.512Z,10.50
2022-12-31T21:42:58.560Z,10.50
2022-12-31T21:45:25.835Z,10.53
2022-12-31T21:48:11.461Z,10.54
2022-12-31T21:50:38.171Z,10.53
2022-12-31T21:53:04.869Z,10.53
2022-12-31T21:55:50.438Z,10.52
2022-12-31T21:58:26.439Z,10.52
2022-12-31T22:01:13.441Z,10.56
2022-12-31T22:03:41.106Z,10.58
2022-12-31T22:06:12.552Z,10.58
2022-12-31T22:08:41.635Z,10.60
2022-12-31T22:11:09.488Z,10.61
2022-12-31T22:13:36.866Z,10.58
2022-12-31T22:16:05.770Z,10.54
2022-12-31T22:18:38.635Z,10.49
2022-12-31T22:21:05.858Z,10.49
2022-12-31T22:23:34.279Z,10.51
2022-12-31T22:26:01.811Z,10.53
2022-12-31T22:28:44.205Z,10.56
2022-12-31T22:31:16.208Z,10.60
2022-12-31T22:33:43.790Z,10.62
2022-12-31T22:36:12.758Z,10.59
2022-12-31T22:38:39.809Z,10.59
2022-12-31T22:41:11.189Z,10.60
2022-12-31T22:43:42.486Z,10.59
2022-12-31T22:46:14.314Z,10.59
2022-12-31T22:48:41.987Z,10.56
2022-12-31T22:51:10.291Z,10.55
2022-12-31T22:53:38.638Z,10.59
2022-12-31T22:56:06.263Z,10.60
2022-12-31T22:58:33.151Z,10.63
2022-12-31T23:01:00.270Z,10.66
2022-12-31T23:03:27.107Z,10.67
2022-12-31T23:05:53.947Z,10.66
2022-12-31T23:08:23.699Z,10.68
2022-12-31T23:11:06.153Z,10.69
2022-12-31T23:14:00.115Z,10.70
2022-12-31T23:16:47.668Z,10.71
2022-12-31T23:19:34.818Z,10.73
2022-12-31T23:22:20.375Z,10.75
2022-12-31T23:24:47.077Z,10.81
2022-12-31T23:27:13.870Z,10.83
2022-12-31T23:29:46.840Z,10.84
2022-12-31T23:32:18.020Z,10.84
2022-12-31T23:34:46.131Z,10.81
2022-12-31T23:37:13.987Z,10.77
2022-12-31T23:39:41.164Z,10.70
2022-12-31T23:42:07.922Z,10.68
2022-12-31T23:44:34.657Z,10.65
2022-12-31T23:47:01.406Z,10.62
2022-12-31T23:49:28.097Z,10.59
2022-12-31T23:51:54.791Z,10.58
2022-12-31T23:54:21.729Z,10.55
2022-12-31T23:56:48.437Z,10.50
2022-12-31T23:59:15.166Z,10.45
